sensor_id;sensor_type;location;lat;lon;timestamp;temperature;humidity
60848;DHT22;46681;47.696;9.140;2022-12-18T00:01:01;8.80;52.50
60848;DHT22;46681;47.696;9.140;2022-12-18T00:03:26;8.80;52.50
60848;DHT22;46681;47.696;9.140;2022-12-18T00:05:52;8.80;52.50
60848;DHT22;46681;47.696;9.140;2022-12-18T00:08:19;8.80;52.50
60848;DHT22;46681;47.696;9.140;2022-12-18T00:10:45;8.80;52.40
60848;DHT22;46681;47.696;9.140;2022-12-18T00:13:11;8.80;52.80
60848;DHT22;46681;47.696;9.140;2022-12-18T00:15:40;8.80;52.40
60848;DHT22;46681;47.696;9.140;2022-12-18T00:18:06;8.80;52.50
60848;DHT22;46681;47.696;9.140;2022-12-18T00:20:39;8.80;52.50
60848;DHT22;46681;47.696;9.140;2022-12-18T00:23:05;8.80;52.50
60848;DHT22;46681;47.696;9.140;2022-12-18T00:25:37;8.80;52.40
60848;DHT22;46681;47.696;9.140;2022-12-18T00:28:03;8.80;52.30
60848;DHT22;46681;47.696;9.140;2022-12-18T00:30:29;8.80;52.30
60848;DHT22;46681;47.696;9.140;2022-12-18T00:32:55;8.80;52.40
60848;DHT22;46681;47.696;9.140;2022-12-18T00:35:21;8.80;52.40
60848;DHT22;46681;47.696;9.140;2022-12-18T00:37:48;8.80;52.30
60848;DHT22;46681;47.696;9.140;2022-12-18T00:40:14;8.80;52.40
60848;DHT22;46681;47.696;9.140;2022-12-18T00:42:40;8.80;52.30
60848;DHT22;46681;47.696;9.140;2022-12-18T00:45:06;8.80;52.30
60848;DHT22;46681;47.696;9.140;2022-12-18T00:47:31;8.80;52.40
60848;DHT22;46681;47.696;9.140;2022-12-18T00:49:57;8.70;52.30
60848;DHT22;46681;47.696;9.140;2022-12-18T00:52:22;8.80;52.30
60848;DHT22;46681;47.696;9.140;2022-12-18T00:54:48;8.80;52.30
60848;DHT22;46681;47.696;9.140;2022-12-18T00:57:15;8.80;52.30
60848;DHT22;46681;47.696;9.140;2022-12-18T00:59:40;8.80;52.30
60848;DHT22;46681;47.696;9.140;2022-12-18T01:02:06;8.80;52.30
60848;DHT22;46681;47.696;9.140;2022-12-18T01:04:32;8.80;52.30
60848;DHT22;46681;47.696;9.140;2022-12-18T01:07:01;8.70;52.30
60848;DHT22;46681;47.696;9.140;2022-12-18T01:09:26;8.80;52.30
60848;DHT22;46681;47.696;9.140;2022-12-18T01:11:54;8.70;52.20
60848;DHT22;46681;47.696;9.140;2022-12-18T01:14:19;8.80;52.30
60848;DHT22;46681;47.696;9.140;2022-12-18T01:16:45;8.70;52.30
60848;DHT22;46681;47.696;9.140;2022-12-18T01:19:10;8.70;52.20
60848;DHT22;46681;47.696;9.140;2022-12-18T01:21:36;8.80;52.30
60848;DHT22;46681;47.696;9.140;2022-12-18T01:24:02;8.70;52.20
60848;DHT22;46681;47.696;9.140;2022-12-18T01:26:27;8.80;52.30
60848;DHT22;46681;47.696;9.140;2022-12-18T01:28:55;8.70;52.20
60848;DHT22;46681;47.696;9.140;2022-12-18T01:31:23;8.70;52.20
60848;DHT22;46681;47.696;9.140;2022-12-18T01:33:52;8.70;52.30
60848;DHT22;46681;47.696;9.140;2022-12-18T01:36:26;8.80;52.30
60848;DHT22;46681;47.696;9.140;2022-12-18T01:38:52;8.70;52.20
60848;DHT22;46681;47.696;9.140;2022-12-18T01:41:22;8.80;52.30
60848;DHT22;46681;47.696;9.140;2022-12-18T01:43:54;8.80;52.30
60848;DHT22;46681;47.696;9.140;2022-12-18T01:46:22;8.80;52.30
60848;DHT22;46681;47.696;9.140;2022-12-18T01:48:56;8.80;52.10
60848;DHT22;46681;47.696;9.140;2022-12-18T01:51:23;8.80;52.10
60848;DHT22;46681;47.696;9.140;2022-12-18T01:53:49;8.80;52.10
60848;DHT22;46681;47.696;9.140;2022-12-18T01:56:19;8.70;52.10
60848;DHT22;46681;47.696;9.140;2022-12-18T01:58:54;8.70;52.30
60848;DHT22;46681;47.696;9.140;2022-12-18T02:01:24;8.70;52.10
60848;DHT22;46681;47.696;9.140;2022-12-18T02:03:53;8.70;52.10
60848;DHT22;46681;47.696;9.140;2022-12-18T02:06:40;8.70;52.20
60848;DHT22;46681;47.696;9.140;2022-12-18T02:09:15;8.70;52.00
60848;DHT22;46681;47.696;9.140;2022-12-18T02:17:23;8.70;52.00
60848;DHT22;46681;47.696;9.140;2022-12-18T02:20:18;8.70;52.00
60848;DHT22;46681;47.696;9.140;2022-12-18T02:28:24;8.80;52.20
60848;DHT22;46681;47.696;9.140;2022-12-18T02:30:56;8.70;52.00
60848;DHT22;46681;47.696;9.140;2022-12-18T02:33:28;8.80;52.00
60848;DHT22;46681;47.696;9.140;2022-12-18T02:35:57;8.80;52.00
60848;DHT22;46681;47.696;9.140;2022-12-18T02:38:25;8.80;52.00
60848;DHT22;46681;47.696;9.140;2022-12-18T02:40:52;8.80;52.00
60848;DHT22;46681;47.696;9.140;2022-12-18T02:43:18;8.70;51.90
60848;DHT22;46681;47.696;9.140;2022-12-18T02:45:50;8.80;52.10
60848;DHT22;46681;47.696;9.140;2022-12-18T02:48:22;8.70;52.00
60848;DHT22;46681;47.696;9.140;2022-12-18T02:51:18;8.70;52.00
60848;DHT22;46681;47.696;9.140;2022-12-18T02:54:17;8.80;51.90
60848;DHT22;46681;47.696;9.140;2022-12-18T02:56:53;8.80;51.90
60848;DHT22;46681;47.696;9.140;2022-12-18T02:59:34;8.70;51.90
60848;DHT22;46681;47.696;9.140;2022-12-18T03:02:07;8.80;52.00
60848;DHT22;46681;47.696;9.140;2022-12-18T03:04:41;8.80;52.10
60848;DHT22;46681;47.696;9.140;2022-12-18T03:07:18;8.80;52.00
60848;DHT22;46681;47.696;9.140;2022-12-18T03:09:49;8.80;52.00
60848;DHT22;46681;47.696;9.140;2022-12-18T03:12:27;8.80;52.00
60848;DHT22;46681;47.696;9.140;2022-12-18T03:17:31;8.70;52.40
60848;DHT22;46681;47.696;9.140;2022-12-18T03:20:04;8.80;52.00
60848;DHT22;46681;47.696;9.140;2022-12-18T03:22:32;8.80;51.90
60848;DHT22;46681;47.696;9.140;2022-12-18T03:25:00;8.80;51.80
60848;DHT22;46681;47.696;9.140;2022-12-18T03:27:28;8.80;51.80
60848;DHT22;46681;47.696;9.140;2022-12-18T03:30:02;8.70;51.90
60848;DHT22;46681;47.696;9.140;2022-12-18T03:32:31;8.80;51.80
60848;DHT22;46681;47.696;9.140;2022-12-18T03:35:02;8.80;51.80
60848;DHT22;46681;47.696;9.140;2022-12-18T03:37:29;8.80;51.80
60848;DHT22;46681;47.696;9.140;2022-12-18T03:39:54;8.80;51.80
60848;DHT22;46681;47.696;9.140;2022-12-18T03:42:29;8.80;51.70
60848;DHT22;46681;47.696;9.140;2022-12-18T03:45:09;8.80;51.90
60848;DHT22;46681;47.696;9.140;2022-12-18T03:50:20;8.80;51.80
60848;DHT22;46681;47.696;9.140;2022-12-18T03:55:26;8.80;51.80
60848;DHT22;46681;47.696;9.140;2022-12-18T03:57:54;8.70;51.80
60848;DHT22;46681;47.696;9.140;2022-12-18T04:00:20;8.70;51.70
60848;DHT22;46681;47.696;9.140;2022-12-18T04:02:56;8.80;51.70
60848;DHT22;46681;47.696;9.140;2022-12-18T04:05:24;8.80;51.80
60848;DHT22;46681;47.696;9.140;2022-12-18T04:07:51;8.80;51.70
60848;DHT22;46681;47.696;9.140;2022-12-18T04:10:19;8.80;51.70
60848;DHT22;46681;47.696;9.140;2022-12-18T04:12:44;8.70;51.70
60848;DHT22;46681;47.696;9.140;2022-12-18T04:15:11;8.80;51.80
60848;DHT22;46681;47.696;9.140;2022-12-18T04:17:37;8.80;51.70
60848;DHT22;46681;47.696;9.140;2022-12-18T04:20:03;8.80;51.70
60848;DHT22;46681;47.696;9.140;2022-12-18T04:22:29;8.80;51.70
60848;DHT22;46681;47.696;9.140;2022-12-18T04:24:54;8.70;51.70
60848;DHT22;46681;47.696;9.140;2022-12-18T04:27:20;8.80;51.70
60848;DHT22;46681;47.696;9.140;2022-12-18T04:29:46;8.80;51.60
60848;DHT22;46681;47.696;9.140;2022-12-18T04:32:11;8.80;51.60
60848;DHT22;46681;47.696;9.140;2022-12-18T04:34:37;8.80;51.50
60848;DHT22;46681;47.696;9.140;2022-12-18T04:37:02;8.80;51.50
60848;DHT22;46681;47.696;9.140;2022-12-18T04:39:28;8.80;51.40
60848;DHT22;46681;47.696;9.140;2022-12-18T04:41:54;8.80;51.50
60848;DHT22;46681;47.696;9.140;2022-12-18T04:44:20;8.80;51.40
60848;DHT22;46681;47.696;9.140;2022-12-18T04:46:45;8.80;51.40
60848;DHT22;46681;47.696;9.140;2022-12-18T04:49:11;8.80;51.50
60848;DHT22;46681;47.696;9.140;2022-12-18T04:51:37;8.80;51.90
60848;DHT22;46681;47.696;9.140;2022-12-18T04:54:02;8.70;51.50
60848;DHT22;46681;47.696;9.140;2022-12-18T04:56:30;8.80;51.50
60848;DHT22;46681;47.696;9.140;2022-12-18T04:58:55;8.80;51.40
60848;DHT22;46681;47.696;9.140;2022-12-18T05:01:21;8.70;51.40
60848;DHT22;46681;47.696;9.140;2022-12-18T05:03:46;8.70;51.40
60848;DHT22;46681;47.696;9.140;2022-12-18T05:06:12;8.70;51.40
60848;DHT22;46681;47.696;9.140;2022-12-18T05:08:37;8.80;51.40
60848;DHT22;46681;47.696;9.140;2022-12-18T05:11:05;8.80;51.40
60848;DHT22;46681;47.696;9.140;2022-12-18T05:13:31;8.80;51.30
60848;DHT22;46681;47.696;9.140;2022-12-18T05:15:57;8.80;51.30
60848;DHT22;46681;47.696;9.140;2022-12-18T05:18:23;8.80;51.20
60848;DHT22;46681;47.696;9.140;2022-12-18T05:20:50;8.80;51.30
60848;DHT22;46681;47.696;9.140;2022-12-18T05:23:15;8.80;51.30
60848;DHT22;46681;47.696;9.140;2022-12-18T05:25:41;8.80;51.30
60848;DHT22;46681;47.696;9.140;2022-12-18T05:28:07;8.80;51.10
60848;DHT22;46681;47.696;9.140;2022-12-18T05:30:33;8.90;51.30
60848;DHT22;46681;47.696;9.140;2022-12-18T05:32:59;8.90;51.20
60848;DHT22;46681;47.696;9.140;2022-12-18T05:35:25;9.00;50.90
60848;DHT22;46681;47.696;9.140;2022-12-18T05:37:50;9.10;50.80
60848;DHT22;46681;47.696;9.140;2022-12-18T05:40:16;9.10;50.80
60848;DHT22;46681;47.696;9.140;2022-12-18T05:42:41;9.20;50.50
60848;DHT22;46681;47.696;9.140;2022-12-18T05:45:07;9.30;50.40
60848;DHT22;46681;47.696;9.140;2022-12-18T05:47:34;9.30;50.20
60848;DHT22;46681;47.696;9.140;2022-12-18T05:49:59;9.40;50.00
60848;DHT22;46681;47.696;9.140;2022-12-18T05:52:25;9.50;49.90
60848;DHT22;46681;47.696;9.140;2022-12-18T05:54:50;9.50;49.80
60848;DHT22;46681;47.696;9.140;2022-12-18T05:57:16;9.60;49.70
60848;DHT22;46681;47.696;9.140;2022-12-18T05:59:41;9.60;49.60
60848;DHT22;46681;47.696;9.140;2022-12-18T06:02:07;9.60;49.60
60848;DHT22;46681;47.696;9.140;2022-12-18T06:04:32;9.60;49.50
60848;DHT22;46681;47.696;9.140;2022-12-18T06:06:58;9.60;49.50
60848;DHT22;46681;47.696;9.140;2022-12-18T06:09:24;9.60;49.30
60848;DHT22;46681;47.696;9.140;2022-12-18T06:11:51;9.60;49.30
60848;DHT22;46681;47.696;9.140;2022-12-18T06:14:17;9.70;49.40
60848;DHT22;46681;47.696;9.140;2022-12-18T06:16:43;9.70;49.40
60848;DHT22;46681;47.696;9.140;2022-12-18T06:19:14;9.60;49.40
60848;DHT22;46681;47.696;9.140;2022-12-18T06:21:40;9.70;49.30
60848;DHT22;46681;47.696;9.140;2022-12-18T06:24:06;9.60;49.30
60848;DHT22;46681;47.696;9.140;2022-12-18T06:26:31;9.70;49.30
60848;DHT22;46681;47.696;9.140;2022-12-18T06:28:57;9.70;49.30
60848;DHT22;46681;47.696;9.140;2022-12-18T06:31:23;9.60;49.30
60848;DHT22;46681;47.696;9.140;2022-12-18T06:33:48;9.60;49.30
60848;DHT22;46681;47.696;9.140;2022-12-18T06:36:14;9.60;49.40
60848;DHT22;46681;47.696;9.140;2022-12-18T06:38:41;9.60;49.50
60848;DHT22;46681;47.696;9.140;2022-12-18T06:41:13;9.60;49.40
60848;DHT22;46681;47.696;9.140;2022-12-18T06:43:39;9.60;49.50
60848;DHT22;46681;47.696;9.140;2022-12-18T06:46:05;9.60;49.40
60848;DHT22;46681;47.696;9.140;2022-12-18T06:48:31;9.60;49.50
60848;DHT22;46681;47.696;9.140;2022-12-18T06:50:57;9.50;49.50
60848;DHT22;46681;47.696;9.140;2022-12-18T06:53:24;9.50;49.50
60848;DHT22;46681;47.696;9.140;2022-12-18T06:55:49;9.50;49.50
60848;DHT22;46681;47.696;9.140;2022-12-18T06:58:15;9.50;49.60
60848;DHT22;46681;47.696;9.140;2022-12-18T07:00:41;9.40;49.60
60848;DHT22;46681;47.696;9.140;2022-12-18T07:03:07;9.40;49.70
60848;DHT22;46681;47.696;9.140;2022-12-18T07:05:32;9.40;49.60
60848;DHT22;46681;47.696;9.140;2022-12-18T07:07:59;9.40;49.60
60848;DHT22;46681;47.696;9.140;2022-12-18T07:10:25;9.40;49.70
60848;DHT22;46681;47.696;9.140;2022-12-18T07:12:52;9.30;49.70
60848;DHT22;46681;47.696;9.140;2022-12-18T07:15:18;9.40;49.80
60848;DHT22;46681;47.696;9.140;2022-12-18T07:17:43;9.40;49.80
60848;DHT22;46681;47.696;9.140;2022-12-18T07:20:09;9.30;49.80
60848;DHT22;46681;47.696;9.140;2022-12-18T07:22:35;9.30;49.80
60848;DHT22;46681;47.696;9.140;2022-12-18T07:25:00;9.30;49.80
60848;DHT22;46681;47.696;9.140;2022-12-18T07:27:27;9.30;49.80
60848;DHT22;46681;47.696;9.140;2022-12-18T07:29:52;9.30;49.70
60848;DHT22;46681;47.696;9.140;2022-12-18T07:32:19;9.30;49.60
60848;DHT22;46681;47.696;9.140;2022-12-18T07:34:44;9.30;49.70
60848;DHT22;46681;47.696;9.140;2022-12-18T07:37:10;9.30;49.80
60848;DHT22;46681;47.696;9.140;2022-12-18T07:39:35;9.30;49.80
60848;DHT22;46681;47.696;9.140;2022-12-18T07:42:00;9.30;49.80
60848;DHT22;46681;47.696;9.140;2022-12-18T07:44:28;9.30;49.80
60848;DHT22;46681;47.696;9.140;2022-12-18T07:46:54;9.30;49.80
60848;DHT22;46681;47.696;9.140;2022-12-18T07:49:19;9.30;49.80
60848;DHT22;46681;47.696;9.140;2022-12-18T07:51:45;9.30;49.80
60848;DHT22;46681;47.696;9.140;2022-12-18T07:54:10;9.30;49.80
60848;DHT22;46681;47.696;9.140;2022-12-18T07:56:36;9.30;49.80
60848;DHT22;46681;47.696;9.140;2022-12-18T07:59:03;9.30;49.80
60848;DHT22;46681;47.696;9.140;2022-12-18T08:01:29;9.30;49.70
60848;DHT22;46681;47.696;9.140;2022-12-18T08:03:54;9.30;49.80
60848;DHT22;46681;47.696;9.140;2022-12-18T08:06:20;9.30;50.30
60848;DHT22;46681;47.696;9.140;2022-12-18T08:08:45;9.40;50.10
60848;DHT22;46681;47.696;9.140;2022-12-18T08:11:11;9.40;49.60
60848;DHT22;46681;47.696;9.140;2022-12-18T08:13:36;9.50;49.50
60848;DHT22;46681;47.696;9.140;2022-12-18T08:16:07;9.40;49.40
60848;DHT22;46681;47.696;9.140;2022-12-18T08:18:33;9.50;49.50
60848;DHT22;46681;47.696;9.140;2022-12-18T08:21:20;9.50;49.40
60848;DHT22;46681;47.696;9.140;2022-12-18T08:23:53;9.50;49.30
60848;DHT22;46681;47.696;9.140;2022-12-18T08:26:20;9.60;49.20
60848;DHT22;46681;47.696;9.140;2022-12-18T08:28:45;9.60;49.10
60848;DHT22;46681;47.696;9.140;2022-12-18T08:31:11;9.60;49.10
60848;DHT22;46681;47.696;9.140;2022-12-18T08:33:37;9.60;49.00
60848;DHT22;46681;47.696;9.140;2022-12-18T08:36:04;9.70;49.00
60848;DHT22;46681;47.696;9.140;2022-12-18T08:38:35;9.70;49.00
60848;DHT22;46681;47.696;9.140;2022-12-18T08:41:08;9.70;48.90
60848;DHT22;46681;47.696;9.140;2022-12-18T08:43:38;9.70;48.90
60848;DHT22;46681;47.696;9.140;2022-12-18T08:46:04;9.70;47.30
60848;DHT22;46681;47.696;9.140;2022-12-18T08:48:30;9.70;47.30
60848;DHT22;46681;47.696;9.140;2022-12-18T08:50:57;9.70;47.50
60848;DHT22;46681;47.696;9.140;2022-12-18T08:53:24;9.70;48.10
60848;DHT22;46681;47.696;9.140;2022-12-18T08:55:49;9.70;48.20
60848;DHT22;46681;47.696;9.140;2022-12-18T08:58:15;9.70;48.20
60848;DHT22;46681;47.696;9.140;2022-12-18T09:00:42;9.70;48.30
60848;DHT22;46681;47.696;9.140;2022-12-18T09:03:15;9.70;48.30
60848;DHT22;46681;47.696;9.140;2022-12-18T09:05:42;9.70;48.40
60848;DHT22;46681;47.696;9.140;2022-12-18T09:08:08;9.70;48.50
60848;DHT22;46681;47.696;9.140;2022-12-18T09:10:40;9.70;48.50
60848;DHT22;46681;47.696;9.140;2022-12-18T09:13:06;9.70;48.50
60848;DHT22;46681;47.696;9.140;2022-12-18T09:15:33;9.70;48.50
60848;DHT22;46681;47.696;9.140;2022-12-18T09:17:59;9.70;48.50
60848;DHT22;46681;47.696;9.140;2022-12-18T09:20:24;9.70;48.50
60848;DHT22;46681;47.696;9.140;2022-12-18T09:22:50;9.70;48.40
60848;DHT22;46681;47.696;9.140;2022-12-18T09:25:17;9.70;48.50
60848;DHT22;46681;47.696;9.140;2022-12-18T09:27:42;9.70;48.50
60848;DHT22;46681;47.696;9.140;2022-12-18T09:30:08;9.70;48.50
60848;DHT22;46681;47.696;9.140;2022-12-18T09:32:34;9.70;48.40
60848;DHT22;46681;47.696;9.140;2022-12-18T09:35:03;9.70;48.40
60848;DHT22;46681;47.696;9.140;2022-12-18T09:37:28;9.80;48.40
60848;DHT22;46681;47.696;9.140;2022-12-18T09:39:54;9.70;48.40
60848;DHT22;46681;47.696;9.140;2022-12-18T09:42:22;9.80;48.40
60848;DHT22;46681;47.696;9.140;2022-12-18T09:44:50;9.70;48.40
60848;DHT22;46681;47.696;9.140;2022-12-18T09:47:25;9.80;48.40
60848;DHT22;46681;47.696;9.140;2022-12-18T09:49:55;9.80;48.40
60848;DHT22;46681;47.696;9.140;2022-12-18T09:52:30;9.80;48.40
60848;DHT22;46681;47.696;9.140;2022-12-18T09:57:38;9.90;48.90
60848;DHT22;46681;47.696;9.140;2022-12-18T10:00:20;9.90;48.10
60848;DHT22;46681;47.696;9.140;2022-12-18T10:02:47;9.90;48.20
60848;DHT22;46681;47.696;9.140;2022-12-18T10:05:14;9.90;48.30
60848;DHT22;46681;47.696;9.140;2022-12-18T10:10:43;9.90;48.40
60848;DHT22;46681;47.696;9.140;2022-12-18T10:13:40;9.90;48.40
60848;DHT22;46681;47.696;9.140;2022-12-18T10:16:17;9.90;48.60
60848;DHT22;46681;47.696;9.140;2022-12-18T10:26:43;9.90;48.70
60848;DHT22;46681;47.696;9.140;2022-12-18T10:29:15;9.90;48.60
60848;DHT22;46681;47.696;9.140;2022-12-18T10:31:43;9.90;48.00
60848;DHT22;46681;47.696;9.140;2022-12-18T10:34:11;9.90;47.90
60848;DHT22;46681;47.696;9.140;2022-12-18T10:36:39;9.90;48.00
60848;DHT22;46681;47.696;9.140;2022-12-18T10:39:25;9.90;48.10
60848;DHT22;46681;47.696;9.140;2022-12-18T10:41:57;9.90;48.10
60848;DHT22;46681;47.696;9.140;2022-12-18T10:44:36;9.90;48.20
60848;DHT22;46681;47.696;9.140;2022-12-18T10:47:10;9.80;48.20
60848;DHT22;46681;47.696;9.140;2022-12-18T10:49:46;9.80;48.10
60848;DHT22;46681;47.696;9.140;2022-12-18T10:52:22;9.50;45.70
60848;DHT22;46681;47.696;9.140;2022-12-18T10:54:55;9.50;45.60
60848;DHT22;46681;47.696;9.140;2022-12-18T10:59:57;9.70;48.60
60848;DHT22;46681;47.696;9.140;2022-12-18T11:02:38;9.90;48.60
60848;DHT22;46681;47.696;9.140;2022-12-18T11:07:50;9.80;47.30
60848;DHT22;46681;47.696;9.140;2022-12-18T11:10:17;9.80;47.40
60848;DHT22;46681;47.696;9.140;2022-12-18T11:12:47;9.80;47.30
60848;DHT22;46681;47.696;9.140;2022-12-18T11:15:27;9.90;47.30
60848;DHT22;46681;47.696;9.140;2022-12-18T11:17:55;10.00;47.40
60848;DHT22;46681;47.696;9.140;2022-12-18T11:23:21;10.10;47.30
60848;DHT22;46681;47.696;9.140;2022-12-18T11:26:01;10.10;47.30
60848;DHT22;46681;47.696;9.140;2022-12-18T11:28:44;10.10;47.20
60848;DHT22;46681;47.696;9.140;2022-12-18T11:31:28;10.20;47.30
60848;DHT22;46681;47.696;9.140;2022-12-18T11:36:33;10.20;47.20
60848;DHT22;46681;47.696;9.140;2022-12-18T11:39:35;10.30;47.20
60848;DHT22;46681;47.696;9.140;2022-12-18T11:44:51;10.30;47.20
60848;DHT22;46681;47.696;9.140;2022-12-18T11:50:25;10.30;47.30
60848;DHT22;46681;47.696;9.140;2022-12-18T11:52:52;10.30;47.70
60848;DHT22;46681;47.696;9.140;2022-12-18T12:04:24;10.20;47.40
60848;DHT22;46681;47.696;9.140;2022-12-18T12:09:41;10.20;47.60
60848;DHT22;46681;47.696;9.140;2022-12-18T12:12:30;10.20;47.60
60848;DHT22;46681;47.696;9.140;2022-12-18T12:21:10;10.10;48.10
60848;DHT22;46681;47.696;9.140;2022-12-18T12:26:28;10.00;48.10
60848;DHT22;46681;47.696;9.140;2022-12-18T12:35:29;9.80;48.10
60848;DHT22;46681;47.696;9.140;2022-12-18T12:40:52;9.80;48.10
60848;DHT22;46681;47.696;9.140;2022-12-18T12:43:39;9.80;48.20
60848;DHT22;46681;47.696;9.140;2022-12-18T12:46:13;9.80;48.20
60848;DHT22;46681;47.696;9.140;2022-12-18T12:48:49;9.70;48.20
60848;DHT22;46681;47.696;9.140;2022-12-18T12:51:29;9.70;48.30
60848;DHT22;46681;47.696;9.140;2022-12-18T12:53:57;9.70;48.20
60848;DHT22;46681;47.696;9.140;2022-12-18T12:56:52;9.70;48.40
60848;DHT22;46681;47.696;9.140;2022-12-18T13:02:56;9.70;48.30
60848;DHT22;46681;47.696;9.140;2022-12-18T13:05:28;9.70;48.50
60848;DHT22;46681;47.696;9.140;2022-12-18T13:08:04;9.70;48.60
60848;DHT22;46681;47.696;9.140;2022-12-18T13:10:41;9.70;48.50
60848;DHT22;46681;47.696;9.140;2022-12-18T13:13:15;9.70;48.40
60848;DHT22;46681;47.696;9.140;2022-12-18T13:16:04;9.70;48.40
60848;DHT22;46681;47.696;9.140;2022-12-18T13:18:35;9.70;48.80
60848;DHT22;46681;47.696;9.140;2022-12-18T13:21:16;9.60;48.60
60848;DHT22;46681;47.696;9.140;2022-12-18T13:23:47;9.70;48.50
60848;DHT22;46681;47.696;9.140;2022-12-18T13:32:00;9.60;48.40
60848;DHT22;46681;47.696;9.140;2022-12-18T13:34:26;9.60;48.40
60848;DHT22;46681;47.696;9.140;2022-12-18T13:37:44;9.70;48.50
60848;DHT22;46681;47.696;9.140;2022-12-18T13:39:46;9.70;48.30
60848;DHT22;46681;47.696;9.140;2022-12-18T13:44:44;9.60;48.40
60848;DHT22;46681;47.696;9.140;2022-12-18T13:47:36;9.60;48.30
60848;DHT22;46681;47.696;9.140;2022-12-18T13:50:23;9.70;48.30
60848;DHT22;46681;47.696;9.140;2022-12-18T13:52:53;9.60;48.20
60848;DHT22;46681;47.696;9.140;2022-12-18T13:55:26;9.60;48.30
60848;DHT22;46681;47.696;9.140;2022-12-18T13:58:04;9.60;48.20
60848;DHT22;46681;47.696;9.140;2022-12-18T14:00:31;9.70;48.20
60848;DHT22;46681;47.696;9.140;2022-12-18T14:03:00;9.70;48.20
60848;DHT22;46681;47.696;9.140;2022-12-18T14:08:05;9.60;48.00
60848;DHT22;46681;47.696;9.140;2022-12-18T14:10:34;9.70;48.10
60848;DHT22;46681;47.696;9.140;2022-12-18T14:13:09;9.70;48.10
60848;DHT22;46681;47.696;9.140;2022-12-18T14:15:42;9.70;48.10
60848;DHT22;46681;47.696;9.140;2022-12-18T14:21:14;9.60;48.10
60848;DHT22;46681;47.696;9.140;2022-12-18T14:24:02;9.60;48.10
60848;DHT22;46681;47.696;9.140;2022-12-18T14:26:36;9.50;48.10
60848;DHT22;46681;47.696;9.140;2022-12-18T14:29:27;9.60;48.10
60848;DHT22;46681;47.696;9.140;2022-12-18T14:32:16;9.60;48.10
60848;DHT22;46681;47.696;9.140;2022-12-18T14:35:12;9.60;48.10
60848;DHT22;46681;47.696;9.140;2022-12-18T14:37:39;9.60;48.10
60848;DHT22;46681;47.696;9.140;2022-12-18T14:40:11;9.50;47.90
60848;DHT22;46681;47.696;9.140;2022-12-18T14:42:56;9.60;48.10
60848;DHT22;46681;47.696;9.140;2022-12-18T14:45:44;9.50;48.00
60848;DHT22;46681;47.696;9.140;2022-12-18T14:50:41;9.60;48.00
60848;DHT22;46681;47.696;9.140;2022-12-18T14:53:23;9.60;47.90
60848;DHT22;46681;47.696;9.140;2022-12-18T14:56:01;9.50;47.90
60848;DHT22;46681;47.696;9.140;2022-12-18T14:58:28;9.50;47.90
60848;DHT22;46681;47.696;9.140;2022-12-18T15:00:59;9.50;47.90
60848;DHT22;46681;47.696;9.140;2022-12-18T15:03:25;9.50;48.00
60848;DHT22;46681;47.696;9.140;2022-12-18T15:05:53;9.50;48.00
60848;DHT22;46681;47.696;9.140;2022-12-18T15:08:41;9.50;48.80
60848;DHT22;46681;47.696;9.140;2022-12-18T15:17:20;9.50;48.00
60848;DHT22;46681;47.696;9.140;2022-12-18T15:20:09;9.50;47.90
60848;DHT22;46681;47.696;9.140;2022-12-18T15:22:37;9.40;48.30
60848;DHT22;46681;47.696;9.140;2022-12-18T15:25:32;9.40;46.80
60848;DHT22;46681;47.696;9.140;2022-12-18T15:28:24;9.40;46.90
60848;DHT22;46681;47.696;9.140;2022-12-18T15:36:23;9.40;47.30
60848;DHT22;46681;47.696;9.140;2022-12-18T15:38:55;9.40;47.30
60848;DHT22;46681;47.696;9.140;2022-12-18T15:41:25;9.40;47.40
60848;DHT22;46681;47.696;9.140;2022-12-18T15:43:54;9.50;47.40
60848;DHT22;46681;47.696;9.140;2022-12-18T15:46:22;9.40;47.40
60848;DHT22;46681;47.696;9.140;2022-12-18T15:48:58;9.50;47.40
60848;DHT22;46681;47.696;9.140;2022-12-18T15:51:46;9.50;47.80
60848;DHT22;46681;47.696;9.140;2022-12-18T15:54:18;9.50;47.30
60848;DHT22;46681;47.696;9.140;2022-12-18T15:56:48;9.60;47.40
60848;DHT22;46681;47.696;9.140;2022-12-18T15:59:19;9.60;47.20
60848;DHT22;46681;47.696;9.140;2022-12-18T16:01:53;9.60;47.20
60848;DHT22;46681;47.696;9.140;2022-12-18T16:04:21;9.60;47.20
60848;DHT22;46681;47.696;9.140;2022-12-18T16:06:55;9.60;47.20
60848;DHT22;46681;47.696;9.140;2022-12-18T16:09:27;9.60;47.20
60848;DHT22;46681;47.696;9.140;2022-12-18T16:11:56;9.70;47.20
60848;DHT22;46681;47.696;9.140;2022-12-18T16:14:33;9.70;47.20
60848;DHT22;46681;47.696;9.140;2022-12-18T16:17:03;9.70;47.10
60848;DHT22;46681;47.696;9.140;2022-12-18T16:19:32;9.60;47.10
60848;DHT22;46681;47.696;9.140;2022-12-18T16:22:00;9.60;47.10
60848;DHT22;46681;47.696;9.140;2022-12-18T16:24:37;9.70;47.10
60848;DHT22;46681;47.696;9.140;2022-12-18T16:27:03;9.60;47.10
60848;DHT22;46681;47.696;9.140;2022-12-18T16:29:29;9.60;47.10
60848;DHT22;46681;47.696;9.140;2022-12-18T16:32:12;9.70;47.20
60848;DHT22;46681;47.696;9.140;2022-12-18T16:34:49;9.60;46.50
60848;DHT22;46681;47.696;9.140;2022-12-18T16:37:21;9.50;46.30
60848;DHT22;46681;47.696;9.140;2022-12-18T16:39:50;9.60;46.30
60848;DHT22;46681;47.696;9.140;2022-12-18T16:42:23;9.50;46.40
60848;DHT22;46681;47.696;9.140;2022-12-18T16:44:53;9.60;47.60
60848;DHT22;46681;47.696;9.140;2022-12-18T16:47:25;9.60;46.90
60848;DHT22;46681;47.696;9.140;2022-12-18T16:49:56;9.60;47.00
60848;DHT22;46681;47.696;9.140;2022-12-18T16:52:29;9.50;46.90
60848;DHT22;46681;47.696;9.140;2022-12-18T16:55:03;9.50;47.00
60848;DHT22;46681;47.696;9.140;2022-12-18T16:57:34;9.50;47.00
60848;DHT22;46681;47.696;9.140;2022-12-18T17:00:04;9.50;47.00
60848;DHT22;46681;47.696;9.140;2022-12-18T17:02:35;9.50;47.10
60848;DHT22;46681;47.696;9.140;2022-12-18T17:05:04;9.50;47.10
60848;DHT22;46681;47.696;9.140;2022-12-18T17:07:37;9.50;47.10
60848;DHT22;46681;47.696;9.140;2022-12-18T17:10:03;9.50;47.10
60848;DHT22;46681;47.696;9.140;2022-12-18T17:12:29;9.50;47.10
60848;DHT22;46681;47.696;9.140;2022-12-18T17:14:55;9.50;47.10
60848;DHT22;46681;47.696;9.140;2022-12-18T17:17:23;9.50;47.10
60848;DHT22;46681;47.696;9.140;2022-12-18T17:19:51;9.50;47.10
60848;DHT22;46681;47.696;9.140;2022-12-18T17:22:20;9.50;47.20
60848;DHT22;46681;47.696;9.140;2022-12-18T17:24:47;9.50;47.20
60848;DHT22;46681;47.696;9.140;2022-12-18T17:27:18;9.50;47.10
60848;DHT22;46681;47.696;9.140;2022-12-18T17:29:54;9.50;47.20
60848;DHT22;46681;47.696;9.140;2022-12-18T17:32:21;9.40;47.20
60848;DHT22;46681;47.696;9.140;2022-12-18T17:34:46;9.50;47.20
60848;DHT22;46681;47.696;9.140;2022-12-18T17:37:12;9.40;47.10
60848;DHT22;46681;47.696;9.140;2022-12-18T17:39:40;9.50;47.20
60848;DHT22;46681;47.696;9.140;2022-12-18T17:42:06;9.50;47.20
60848;DHT22;46681;47.696;9.140;2022-12-18T17:44:35;9.50;47.10
60848;DHT22;46681;47.696;9.140;2022-12-18T17:47:04;9.40;47.20
60848;DHT22;46681;47.696;9.140;2022-12-18T17:49:33;9.50;47.20
60848;DHT22;46681;47.696;9.140;2022-12-18T17:51:59;9.40;47.10
60848;DHT22;46681;47.696;9.140;2022-12-18T17:54:25;9.50;47.10